昆明 の空港の天気 - METARとTAF

昆明巫家餽国際空港 ( ZPPP / KMG ) - 中国 雲南省昆明市
飛行場実況気象(Metar)
観測時間10/16 01:00 CST (10/15 17:00 UTC)
風向・風速南南西 7m/s
視程10km以上
天気現象
全天の4割程度の雲 雲底高度 490m
全天を覆う雲 雲底高度 1010m
気温14℃
湿度94%
気圧1028hPa
METARZPPP 151700Z 21007MPS 9999 SCT016 OVC033 14/13 Q1028 NOSIG
過去の天気等 Google飛行場航空写真 Wunderground天気予報

過去48時間のMETAR

飛行場予報(TAF)
発表時間: 10/15 15:15 CST (10/15 07:15 UTC)
予報対象時間: 15日20時 CST ~ 16日20時 CST
風向・風速南西 4m/s
視程6000m
全天の4割程度の雲 雲底高度 610m
全天の8割程度の雲 雲底高度 1010m
TAF ZPPP 150715Z 1512/1612 22004MPS 6000 SCT020 BKN033 TX18/1608Z TN12/1523Z